Time;durP1;ratioP1;P1;durP2;ratioP2;P2;SDS_P1;SDS_P2;PMS_P1;PMS_P2;Temp;Humidity;BMP_temperature;BMP_pressure;BME280_temperature;BME280_humidity;BME280_pressure;Samples;Min_cycle;Max_cycle;Signal;HPM_P1;HPM_P2
2022/10/09 00:02:11;;;;;;;3.97;2.30;;;14.00;99.90;15.50;97493.00;;;;5034372;28;20271;-64
2022/10/09 00:05:00;;;;;;;3.77;3.27;;;14.00;99.90;15.40;97489.00;;;;5045065;28;20205;-63
2022/10/09 00:07:48;;;;;;;6.57;1.70;;;14.00;99.90;15.50;97496.00;;;;5035806;28;20221;-63
2022/10/09 00:10:41;;;;;;;9.10;2.83;;;14.00;99.90;15.50;97489.00;;;;5044880;28;20204;-64
2022/10/09 00:13:30;;;;;;;6.37;2.53;;;14.00;99.90;15.60;97484.00;;;;5037388;28;20291;-63
2022/10/09 00:16:20;;;;;;;8.83;2.50;;;14.00;99.90;15.70;97480.00;;;;5034030;28;20216;-64
2022/10/09 00:19:10;;;;;;;8.87;2.60;;;14.10;99.90;15.50;97483.00;;;;5032507;28;20208;-64
2022/10/09 00:21:59;;;;;;;10.17;3.17;;;14.00;99.90;15.60;97483.00;;;;5045243;28;20229;-64
2022/10/09 00:24:48;;;;;;;3.60;1.93;;;14.10;99.90;15.60;97479.00;;;;5048619;28;20227;-63
2022/10/09 00:27:36;;;;;;;2.53;1.93;;;14.10;99.90;15.50;97469.00;;;;5041874;28;20208;-63
2022/10/09 00:30:25;;;;;;;7.17;2.00;;;14.00;99.90;15.40;97474.00;;;;5040952;28;20800;-63
2022/10/09 00:33:14;;;;;;;2.80;1.80;;;14.00;99.90;15.40;97481.00;;;;5038169;28;20746;-64
2022/10/09 00:36:07;;;;;;;5.33;1.57;;;14.00;99.90;15.40;97474.00;;;;5043114;28;20698;-64
2022/10/09 00:38:56;;;;;;;6.10;2.57;;;14.00;99.90;15.40;97473.00;;;;5039053;28;20336;-64
2022/10/09 00:41:45;;;;;;;4.23;2.43;;;13.90;99.90;15.20;97472.00;;;;5046589;28;20245;-64
2022/10/09 00:44:56;;;;;;;3.27;2.53;;;13.90;99.90;15.30;97470.00;;;;5045860;28;20271;-64
2022/10/09 00:47:49;;;;;;;4.53;2.10;;;13.90;99.90;15.20;97461.00;;;;5031088;28;20259;-64
2022/10/09 00:50:42;;;;;;;4.67;2.63;;;13.90;99.90;15.20;97480.00;;;;5034968;28;20270;-63
2022/10/09 00:53:32;;;;;;;4.63;2.50;;;13.90;99.90;15.40;97473.00;;;;5043279;28;20395;-63
2022/10/09 00:56:21;;;;;;;2.00;1.90;;;13.90;99.90;15.30;97467.00;;;;5045361;28;20224;-64
2022/10/09 00:59:10;;;;;;;5.30;2.50;;;13.90;99.90;15.20;97466.00;;;;5043182;28;20220;-64
2022/10/09 01:01:59;;;;;;;4.10;2.47;;;13.80;99.90;15.10;97454.00;;;;5042530;28;20928;-63
2022/10/09 01:04:48;;;;;;;2.83;2.30;;;13.80;99.90;14.90;97463.00;;;;5032272;28;20201;-63
2022/10/09 01:07:44;;;;;;;5.00;2.33;;;13.80;99.90;15.20;97446.00;;;;5041682;28;20209;-64
2022/10/09 01:10:42;;;;;;;2.27;2.07;;;13.80;99.90;15.30;97453.00;;;;5038226;28;20869;-63
2022/10/09 01:13:37;;;;;;;3.20;1.57;;;13.80;99.90;15.30;97461.00;;;;5041280;28;20240;-63
2022/10/09 01:16:29;;;;;;;3.07;1.63;;;13.80;99.90;15.30;97460.00;;;;5039506;28;20786;-63
2022/10/09 01:19:39;;;;;;;1.70;1.30;;;13.80;99.90;15.40;97455.00;;;;5031905;28;20202;-64
2022/10/09 01:22:43;;;;;;;5.50;1.43;;;13.80;99.90;15.30;97456.00;;;;5037040;28;20193;-64
2022/10/09 01:25:43;;;;;;;2.87;1.33;;;13.90;99.90;15.30;97450.00;;;;5047519;28;20220;-63
2022/10/09 01:28:35;;;;;;;2.47;1.33;;;13.90;99.90;15.40;97460.00;;;;5073078;22;20247;-68
2022/10/09 01:31:28;;;;;;;5.03;1.73;;;13.80;99.90;15.40;97455.00;;;;5061089;28;20241;-68
2022/10/09 01:34:19;;;;;;;3.03;2.47;;;13.80;99.90;15.40;97444.00;;;;5064475;28;20215;-68
2022/10/09 01:37:09;;;;;;;4.73;1.73;;;13.80;99.90;15.30;97432.00;;;;5060228;28;20897;-68
2022/10/09 01:39:59;;;;;;;1.67;1.10;;;13.80;99.90;15.20;97433.00;;;;5046992;28;20215;-68
2022/10/09 01:42:48;;;;;;;2.13;1.10;;;13.80;99.90;15.10;97447.00;;;;5045066;28;20244;-68
2022/10/09 01:45:44;;;;;;;1.47;1.10;;;13.70;99.90;14.90;97445.00;;;;5040908;28;20201;-68
2022/10/09 01:48:33;;;;;;;1.83;1.30;;;13.70;99.90;14.70;97454.00;;;;5039391;28;20299;-68
2022/10/09 01:51:27;;;;;;;3.97;1.50;;;13.60;99.90;14.70;97446.00;;;;5050047;28;20216;-68
2022/10/09 01:54:27;;;;;;;3.33;1.97;;;13.60;99.90;14.80;97450.00;;;;5049497;28;20235;-67
2022/10/09 01:57:24;;;;;;;1.57;1.47;;;13.50;99.90;14.90;97451.00;;;;5047433;28;20228;-68
2022/10/09 02:00:14;;;;;;;2.13;1.80;;;13.50;99.90;14.50;97453.00;;;;5047516;28;20192;-72
2022/10/09 02:03:10;;;;;;;1.83;1.30;;;13.50;99.90;14.80;97464.00;;;;5049189;28;20215;-68
2022/10/09 02:06:00;;;;;;;2.03;1.83;;;13.50;99.90;14.90;97456.00;;;;5062469;28;20200;-68
2022/10/09 02:08:53;;;;;;;5.73;2.37;;;13.50;99.90;14.80;97451.00;;;;5058535;28;20298;-68
2022/10/09 02:11:48;;;;;;;1.63;1.53;;;13.50;99.90;15.00;97463.00;;;;5051988;28;20352;-68
2022/10/09 02:14:38;;;;;;;4.07;2.00;;;13.50;99.90;15.10;97461.00;;;;5044622;28;20240;-68
2022/10/09 02:17:31;;;;;;;5.37;2.03;;;13.60;99.90;15.00;97457.00;;;;5048599;28;20220;-68
2022/10/09 02:20:29;;;;;;;1.70;1.60;;;13.60;99.90;15.00;97455.00;;;;5052433;28;20285;-68
2022/10/09 02:23:19;;;;;;;1.70;1.60;;;13.60;99.90;15.10;97453.00;;;;5043340;28;20232;-68
2022/10/09 02:26:10;;;;;;;2.73;1.90;;;13.60;99.90;15.00;97456.00;;;;5032542;28;20206;-68
2022/10/09 02:28:59;;;;;;;2.03;1.53;;;13.60;99.90;15.10;97455.00;;;;5044232;28;20209;-68
2022/10/09 02:31:47;;;;;;;5.00;1.50;;;13.60;99.90;15.10;97450.00;;;;5047687;28;20204;-67
2022/10/09 02:34:36;;;;;;;5.63;1.70;;;13.60;99.90;15.00;97444.00;;;;5048484;28;20238;-68
2022/10/09 02:37:26;;;;;;;2.80;2.23;;;13.60;99.90;15.00;97444.00;;;;5053073;28;20326;-68
2022/10/09 02:40:15;;;;;;;2.53;1.50;;;13.60;99.90;14.80;97441.00;;;;5045191;28;20667;-68
2022/10/09 02:43:04;;;;;;;4.70;1.60;;;13.60;99.90;14.60;97432.00;;;;5038980;28;20270;-68
2022/10/09 02:45:52;;;;;;;2.70;1.83;;;13.50;99.90;14.60;97445.00;;;;5043599;28;20695;-68
2022/10/09 02:48:41;;;;;;;1.70;1.60;;;13.50;99.90;14.50;97445.00;;;;5049345;28;20637;-68
2022/10/09 02:51:30;;;;;;;3.50;1.93;;;13.40;99.90;14.60;97443.00;;;;5048384;28;20311;-68
2022/10/09 02:54:20;;;;;;;2.00;1.90;;;13.40;99.90;14.70;97431.00;;;;5052852;28;20254;-68
2022/10/09 02:57:09;;;;;;;4.73;1.60;;;13.40;99.90;14.80;97433.00;;;;5055656;28;20297;-68
2022/10/09 02:59:57;;;;;;;2.03;1.57;;;13.40;99.90;14.60;97439.00;;;;5052656;28;20211;-68
2022/10/09 03:02:46;;;;;;;4.13;1.70;;;13.40;99.90;14.70;97438.00;;;;5053313;28;20208;-68
2022/10/09 03:05:35;;;;;;;4.63;1.63;;;13.30;99.90;14.90;97444.00;;;;5054740;28;20208;-68
2022/10/09 03:08:24;;;;;;;4.13;1.63;;;13.40;99.90;14.70;97453.00;;;;5064598;28;20305;-68
2022/10/09 03:11:15;;;;;;;3.60;1.57;;;13.40;99.90;14.70;97447.00;;;;5047803;28;20204;-67
2022/10/09 03:14:04;;;;;;;2.63;1.20;;;13.30;99.90;14.80;97442.00;;;;5059725;28;20751;-68
2022/10/09 03:16:53;;;;;;;4.80;1.70;;;13.30;99.90;14.60;97455.00;;;;5046610;28;20221;-67
2022/10/09 03:19:41;;;;;;;2.93;1.63;;;13.30;99.90;14.50;97454.00;;;;5054060;28;20223;-68
2022/10/09 03:22:30;;;;;;;2.30;1.40;;;13.30;99.90;14.60;97456.00;;;;5055967;28;20232;-68
2022/10/09 03:25:19;;;;;;;2.80;1.73;;;13.30;99.90;14.70;97451.00;;;;5056046;28;20208;-68
2022/10/09 03:28:09;;;;;;;3.27;1.20;;;13.30;99.90;14.80;97461.00;;;;5052142;28;20232;-68
2022/10/09 03:30:58;;;;;;;1.53;1.43;;;13.30;99.90;14.80;97461.00;;;;5047007;28;20679;-68
2022/10/09 03:33:46;;;;;;;3.23;1.53;;;13.30;99.90;14.80;97464.00;;;;5048810;28;20240;-68
2022/10/09 03:36:35;;;;;;;4.37;2.00;;;13.30;99.90;14.70;97467.00;;;;5054888;28;20277;-68
2022/10/09 03:39:24;;;;;;;2.07;1.80;;;13.30;99.90;14.70;97459.00;;;;5049338;28;20262;-68
2022/10/09 03:42:13;;;;;;;2.07;1.30;;;13.30;99.90;14.70;97469.00;;;;5057531;28;20522;-68
2022/10/09 03:45:05;;;;;;;3.03;1.63;;;13.30;99.90;14.70;97468.00;;;;5053266;28;20654;-68
2022/10/09 03:47:53;;;;;;;3.83;1.90;;;13.30;99.90;14.60;97470.00;;;;5052087;28;20228;-68
2022/10/09 03:50:42;;;;;;;2.03;1.50;;;13.30;99.90;14.60;97470.00;;;;5063911;28;20720;-68
2022/10/09 03:53:31;;;;;;;3.07;1.63;;;13.20;99.90;14.70;97467.00;;;;5046981;28;20200;-68
2022/10/09 03:56:20;;;;;;;1.70;1.60;;;13.20;99.90;14.60;97466.00;;;;5050021;28;20212;-68
2022/10/09 03:59:09;;;;;;;1.97;1.77;;;13.20;99.90;14.70;97474.00;;;;5053613;28;20220;-68
2022/10/09 04:01:59;;;;;;;1.70;1.60;;;13.20;99.90;14.70;97475.00;;;;5057818;28;20209;-68
2022/10/09 04:04:48;;;;;;;5.90;2.13;;;13.20;99.90;14.70;97469.00;;;;5044312;28;20204;-68
2022/10/09 04:07:37;;;;;;;3.20;1.70;;;13.20;99.90;14.60;97473.00;;;;5062354;28;20263;-68
2022/10/09 04:10:25;;;;;;;3.37;1.50;;;13.20;99.90;14.50;97472.00;;;;5051821;28;20290;-68
2022/10/09 04:13:14;;;;;;;2.87;2.30;;;13.20;99.90;14.30;97468.00;;;;5050625;28;20255;-68
2022/10/09 04:16:03;;;;;;;3.07;2.00;;;13.10;99.90;14.10;97469.00;;;;5035099;28;20201;-68
2022/10/09 04:18:53;;;;;;;2.47;2.13;;;13.00;99.90;14.10;97476.00;;;;5043297;28;20235;-68
2022/10/09 04:21:41;;;;;;;10.77;2.20;;;13.00;99.90;14.10;97462.00;;;;5047979;28;20200;-68
2022/10/09 04:24:30;;;;;;;2.77;1.90;;;12.90;99.90;14.20;97467.00;;;;5065212;28;20668;-68
2022/10/09 04:27:19;;;;;;;2.67;2.10;;;12.90;99.90;14.20;97476.00;;;;5062611;28;20250;-68
2022/10/09 04:30:10;;;;;;;2.40;2.03;;;12.90;99.90;14.20;97476.00;;;;5053350;28;20307;-68
2022/10/09 04:32:58;;;;;;;6.83;3.07;;;12.80;99.90;14.10;97475.00;;;;5054024;28;20211;-68
2022/10/09 04:35:51;;;;;;;3.00;2.20;;;12.80;99.90;13.90;97480.00;;;;5040324;28;20213;-68
2022/10/09 04:38:40;;;;;;;2.10;1.60;;;12.80;99.90;14.00;97489.00;;;;5043152;28;20232;-68
2022/10/09 04:41:29;;;;;;;1.97;1.73;;;12.70;99.90;13.90;97489.00;;;;5050232;28;20310;-68
2022/10/09 04:44:19;;;;;;;1.97;1.87;;;12.70;99.90;13.90;97492.00;;;;5051785;28;20192;-68
2022/10/09 04:47:08;;;;;;;1.50;1.40;;;12.60;99.90;13.80;97494.00;;;;5043386;28;20249;-68
2022/10/09 04:49:58;;;;;;;2.07;1.40;;;12.60;99.90;13.70;97501.00;;;;5053404;28;20305;-68
2022/10/09 04:52:48;;;;;;;1.93;1.43;;;12.50;99.90;13.70;97498.00;;;;5051240;28;20254;-68
2022/10/09 04:55:39;;;;;;;2.07;1.53;;;12.50;99.90;13.30;97512.00;;;;5050029;28;20193;-68
2022/10/09 04:58:28;;;;;;;2.10;1.50;;;12.40;99.90;13.30;97521.00;;;;5049115;28;20640;-68
2022/10/09 05:01:20;;;;;;;2.87;1.60;;;12.30;99.90;13.50;97512.00;;;;5044737;28;20200;-68
2022/10/09 05:04:09;;;;;;;1.60;1.50;;;12.20;99.90;13.50;97517.00;;;;5049411;28;20687;-68
2022/10/09 05:06:57;;;;;;;2.50;2.03;;;12.20;99.90;13.50;97520.00;;;;5041082;28;21013;-68
2022/10/09 05:09:47;;;;;;;1.87;1.77;;;12.20;99.90;13.50;97522.00;;;;5069942;28;20203;-68
2022/10/09 05:12:36;;;;;;;2.50;1.90;;;12.20;99.90;13.50;97521.00;;;;5060156;28;20232;-68
2022/10/09 05:15:25;;;;;;;2.20;1.80;;;12.20;99.90;13.50;97519.00;;;;5041155;28;20597;-68
2022/10/09 05:18:14;;;;;;;4.03;1.70;;;12.20;99.90;13.40;97520.00;;;;5049779;28;20230;-67
2022/10/09 05:21:04;;;;;;;2.27;2.07;;;12.20;99.90;13.40;97526.00;;;;5032182;28;20627;-68
2022/10/09 05:23:53;;;;;;;1.77;1.50;;;12.10;99.90;13.30;97528.00;;;;5050591;28;20270;-68
2022/10/09 05:26:43;;;;;;;2.17;1.97;;;12.10;99.90;13.20;97528.00;;;;5051451;28;20303;-68
2022/10/09 05:29:33;;;;;;;2.83;1.90;;;12.10;99.90;13.20;97532.00;;;;5056974;28;20680;-68
2022/10/09 05:32:22;;;;;;;2.30;2.10;;;12.00;99.90;13.10;97533.00;;;;5045179;28;20603;-67
2022/10/09 05:35:11;;;;;;;5.73;2.13;;;12.00;99.90;13.30;97535.00;;;;5047165;28;20200;-68
2022/10/09 05:38:00;;;;;;;4.23;1.90;;;12.00;99.90;13.40;97552.00;;;;5051899;28;20351;-68
2022/10/09 05:40:52;;;;;;;2.33;2.10;;;12.00;99.90;13.40;97542.00;;;;5047188;28;20217;-68
2022/10/09 05:43:44;;;;;;;6.23;2.37;;;12.00;99.90;13.40;97548.00;;;;5046892;28;20255;-68
2022/10/09 05:46:33;;;;;;;3.90;2.50;;;12.00;99.90;13.30;97550.00;;;;5045013;28;20235;-68
2022/10/09 05:49:23;;;;;;;7.03;2.13;;;12.00;99.90;13.30;97545.00;;;;5043676;28;20251;-68
2022/10/09 05:52:11;;;;;;;3.20;2.90;;;12.00;99.90;13.20;97549.00;;;;5044165;28;20197;-67
2022/10/09 05:55:00;;;;;;;8.50;3.07;;;12.00;99.90;13.20;97550.00;;;;5048736;28;20251;-68
2022/10/09 05:57:49;;;;;;;4.90;3.20;;;11.90;99.90;13.30;97557.00;;;;5047898;28;20227;-68
2022/10/09 06:00:39;;;;;;;4.70;3.00;;;11.90;99.90;13.10;97557.00;;;;5042171;28;20233;-68
2022/10/09 06:03:28;;;;;;;4.77;2.93;;;11.90;99.90;12.90;97567.00;;;;5048290;28;20276;-68
2022/10/09 06:06:18;;;;;;;4.53;2.83;;;11.90;99.90;12.80;97573.00;;;;5046324;28;20232;-68
2022/10/09 06:09:10;;;;;;;7.07;2.60;;;11.80;99.90;12.70;97567.00;;;;5048539;28;20247;-68
2022/10/09 06:11:59;;;;;;;2.70;2.40;;;11.70;99.90;12.60;97570.00;;;;5049412;28;20196;-68
2022/10/09 06:14:47;;;;;;;3.20;2.57;;;11.70;99.90;12.40;97580.00;;;;5047218;28;20274;-68
2022/10/09 06:17:37;;;;;;;3.23;2.50;;;11.60;99.90;12.60;97578.00;;;;5048152;28;20216;-68
2022/10/09 06:20:26;;;;;;;2.73;2.30;;;11.60;99.90;13.00;97582.00;;;;5047322;28;20255;-68
2022/10/09 06:23:15;;;;;;;5.20;2.47;;;11.60;99.90;12.90;97579.00;;;;5042743;28;20213;-68
2022/10/09 06:26:06;;;;;;;3.07;2.00;;;11.60;99.90;12.70;97578.00;;;;5040121;28;20197;-68
2022/10/09 06:28:56;;;;;;;4.20;2.67;;;11.60;99.90;12.60;97584.00;;;;5042340;28;20297;-68
2022/10/09 06:31:45;;;;;;;2.10;1.90;;;11.60;99.90;12.80;97593.00;;;;5045278;28;20197;-68
2022/10/09 06:34:35;;;;;;;3.30;2.23;;;11.60;99.90;12.90;97612.00;;;;5045574;28;20278;-68
2022/10/09 06:37:24;;;;;;;2.60;2.40;;;11.70;99.90;12.70;97611.00;;;;5045279;28;20221;-69
2022/10/09 06:40:12;;;;;;;13.23;2.87;;;11.70;99.90;12.80;97618.00;;;;5046362;28;20706;-69
2022/10/09 06:43:01;;;;;;;2.77;2.57;;;11.70;99.90;12.80;97618.00;;;;5045581;28;20307;-69
2022/10/09 06:45:50;;;;;;;3.20;2.67;;;11.80;99.90;13.20;97616.00;;;;5048261;28;20764;-68
2022/10/09 06:48:40;;;;;;;3.23;2.77;;;11.80;99.90;13.60;97626.00;;;;5037001;28;20570;-70
2022/10/09 06:51:31;;;;;;;10.87;6.17;;;11.90;99.90;13.70;97621.00;;;;5049331;28;20216;-70
2022/10/09 06:54:20;;;;;;;5.60;5.10;;;12.10;99.90;13.80;97632.00;;;;5046650;28;20243;-70
2022/10/09 06:57:09;;;;;;;3.30;2.73;;;12.20;99.90;13.90;97638.00;;;;5039411;28;20220;-70
2022/10/09 06:59:57;;;;;;;3.77;2.33;;;12.30;99.90;13.90;97629.00;;;;5033376;28;20225;-70
2022/10/09 07:02:46;;;;;;;2.53;2.23;;;12.40;99.90;14.00;97631.00;;;;5053303;28;20205;-70
2022/10/09 07:05:35;;;;;;;4.03;2.33;;;12.50;99.90;13.90;97629.00;;;;5048823;28;20197;-70
2022/10/09 07:08:25;;;;;;;2.37;2.13;;;12.50;99.90;13.80;97635.00;;;;5048470;28;20282;-70
2022/10/09 07:11:16;;;;;;;4.50;2.10;;;12.50;99.90;13.80;97641.00;;;;5041537;28;20685;-70
2022/10/09 07:14:08;;;;;;;4.57;2.87;;;12.50;99.90;14.00;97634.00;;;;5047030;28;20213;-70
2022/10/09 07:16:57;;;;;;;5.07;2.87;;;12.50;99.90;14.20;97641.00;;;;5037027;28;20219;-69
2022/10/09 07:19:45;;;;;;;4.57;3.10;;;12.60;99.90;14.50;97645.00;;;;5038827;28;20557;-70
2022/10/09 07:22:34;;;;;;;2.50;2.27;;;12.70;99.90;14.50;97644.00;;;;5039924;28;20205;-69
2022/10/09 07:25:24;;;;;;;3.63;2.33;;;12.80;99.90;14.40;97649.00;;;;5040946;28;20311;-69
2022/10/09 07:28:13;;;;;;;3.43;2.10;;;12.80;99.90;14.40;97650.00;;;;5045771;28;20235;-69
2022/10/09 07:31:03;;;;;;;7.77;2.67;;;12.90;99.90;14.40;97639.00;;;;5040625;28;20204;-71
2022/10/09 07:33:54;;;;;;;2.30;2.10;;;12.90;99.90;14.40;97651.00;;;;5040139;28;20192;-71
2022/10/09 07:36:43;;;;;;;2.40;2.17;;;13.00;99.90;14.20;97645.00;;;;5043221;28;20211;-71
2022/10/09 07:39:31;;;;;;;5.27;2.53;;;13.00;99.90;14.30;97648.00;;;;5048252;28;20200;-70
2022/10/09 07:42:21;;;;;;;3.03;2.77;;;13.00;99.90;14.50;97645.00;;;;5045913;28;20201;-70
2022/10/09 07:45:11;;;;;;;5.13;2.57;;;12.90;99.90;14.40;97648.00;;;;5053988;28;20203;-70
2022/10/09 07:47:59;;;;;;;9.20;2.30;;;12.90;99.90;14.50;97649.00;;;;5040773;28;20508;-69
2022/10/09 07:50:48;;;;;;;2.50;2.30;;;13.00;99.90;14.40;97660.00;;;;5040455;28;20232;-70
2022/10/09 07:53:37;;;;;;;3.40;2.33;;;13.00;99.90;14.60;97658.00;;;;5045778;28;20201;-70
2022/10/09 07:56:31;;;;;;;5.10;2.80;;;13.10;99.90;14.60;97662.00;;;;5053962;28;20228;-69
2022/10/09 07:59:21;;;;;;;4.87;2.80;;;13.20;99.90;14.50;97655.00;;;;5050045;28;20200;-70
2022/10/09 08:02:10;;;;;;;3.17;2.17;;;13.20;99.90;14.30;97653.00;;;;5047189;28;20275;-70
2022/10/09 08:04:59;;;;;;;4.33;2.53;;;13.20;99.90;14.70;97660.00;;;;5046635;28;20204;-70
2022/10/09 08:07:48;;;;;;;2.97;2.63;;;13.20;99.90;14.70;97666.00;;;;5048879;28;20220;-70
2022/10/09 08:10:36;;;;;;;5.73;2.40;;;13.30;99.90;14.90;97667.00;;;;5048242;28;20205;-70
2022/10/09 08:13:25;;;;;;;7.10;3.47;;;13.30;99.90;15.00;97667.00;;;;5047050;28;20196;-70
2022/10/09 08:16:16;;;;;;;3.73;2.80;;;13.40;99.90;15.10;97665.00;;;;5049228;28;20193;-70
2022/10/09 08:19:05;;;;;;;3.73;2.63;;;13.50;99.90;15.30;97672.00;;;;5042466;28;20255;-70
2022/10/09 08:21:53;;;;;;;6.00;2.80;;;13.60;99.90;15.40;97676.00;;;;5053715;28;20892;-70
2022/10/09 08:24:42;;;;;;;3.17;2.20;;;13.70;99.90;15.50;97678.00;;;;5035302;28;20201;-70
2022/10/09 08:27:31;;;;;;;2.97;2.40;;;13.80;99.90;15.30;97672.00;;;;5050902;28;20240;-69
2022/10/09 08:30:20;;;;;;;2.70;2.50;;;13.80;99.90;15.50;97668.00;;;;5039929;28;20250;-70
2022/10/09 08:33:10;;;;;;;5.73;3.13;;;13.90;99.90;15.60;97672.00;;;;5036866;28;20621;-70
2022/10/09 08:36:06;;;;;;;3.33;3.03;;;14.00;99.90;15.70;97675.00;;;;5046741;28;20676;-70
2022/10/09 08:38:55;;;;;;;6.60;3.57;;;14.00;99.90;15.90;97678.00;;;;5041800;28;20204;-70
2022/10/09 08:41:47;;;;;;;9.00;3.67;;;14.10;99.90;15.90;97679.00;;;;5043659;28;20224;-70
2022/10/09 08:44:41;;;;;;;5.70;3.63;;;14.20;99.90;16.00;97689.00;;;;5046737;28;20232;-70
2022/10/09 08:47:38;;;;;;;3.97;3.57;;;14.20;99.90;16.10;97687.00;;;;5035137;28;20568;-69
2022/10/09 08:50:32;;;;;;;5.90;3.90;;;14.30;99.90;16.10;97696.00;;;;5046732;28;20228;-70
2022/10/09 08:53:35;;;;;;;4.97;3.93;;;14.40;99.90;16.20;97703.00;;;;5053460;28;20269;-70
2022/10/09 08:56:26;;;;;;;4.93;3.90;;;14.40;99.90;16.20;97702.00;;;;5054500;28;20207;-70
2022/10/09 08:59:15;;;;;;;5.17;4.33;;;14.50;99.90;16.20;97706.00;;;;5049870;28;20295;-70
2022/10/09 09:02:22;;;;;;;6.33;4.73;;;14.50;99.90;16.20;97694.00;;;;5044304;28;20224;-70
2022/10/09 09:05:30;;;;;;;4.87;4.27;;;14.50;99.90;16.30;97707.00;;;;5046533;28;20204;-70
2022/10/09 09:08:32;;;;;;;5.70;3.87;;;14.60;99.90;16.40;97702.00;;;;5042087;28;20231;-70
2022/10/09 09:11:34;;;;;;;6.13;3.70;;;14.60;99.90;16.60;97703.00;;;;5051107;28;20200;-70
2022/10/09 09:14:40;;;;;;;4.30;3.70;;;14.70;99.90;16.60;97708.00;;;;5043237;28;20875;-70
2022/10/09 09:17:41;;;;;;;5.97;3.80;;;14.80;99.90;16.70;97713.00;;;;5050489;28;20223;-70
2022/10/09 09:20:43;;;;;;;3.67;3.37;;;14.90;99.90;16.80;97717.00;;;;5044579;28;20192;-70
2022/10/09 09:23:38;;;;;;;8.07;4.27;;;15.00;99.90;16.70;97711.00;;;;5047230;28;20231;-70
2022/10/09 09:26:27;;;;;;;5.57;4.00;;;15.00;99.90;16.70;97719.00;;;;5040025;28;20236;-70
2022/10/09 09:29:23;;;;;;;4.20;3.90;;;15.00;99.90;16.40;97700.00;;;;5035801;28;20224;-70
2022/10/09 09:32:20;;;;;;;4.87;4.20;;;15.00;99.90;16.00;97705.00;;;;5042370;28;20626;-70
2022/10/09 09:35:21;;;;;;;10.00;4.90;;;14.90;99.90;16.30;97710.00;;;;5047716;28;20246;-69
2022/10/09 09:38:11;;;;;;;6.40;4.23;;;14.80;99.90;16.50;97707.00;;;;5037422;28;20278;-68
2022/10/09 09:41:00;;;;;;;7.83;5.23;;;14.80;99.90;16.40;97715.00;;;;5041682;28;20279;-69
2022/10/09 09:43:49;;;;;;;5.17;4.60;;;14.80;99.90;16.40;97705.00;;;;5036740;28;20204;-68
2022/10/09 09:46:39;;;;;;;5.60;4.83;;;14.80;99.90;16.00;97706.00;;;;5045823;28;20818;-68
2022/10/09 09:49:28;;;;;;;7.10;5.33;;;14.80;99.90;16.10;97710.00;;;;5053507;28;20226;-68
2022/10/09 09:52:17;;;;;;;11.83;5.23;;;14.70;99.90;16.40;97714.00;;;;5047006;28;20262;-68
2022/10/09 09:55:23;;;;;;;6.70;5.00;;;14.70;99.90;16.40;97721.00;;;;5040948;28;20197;-68
2022/10/09 09:58:17;;;;;;;8.10;5.63;;;14.80;99.90;16.10;97718.00;;;;5043763;28;20262;-68
2022/10/09 10:01:07;;;;;;;8.13;6.00;;;14.70;99.90;16.10;97719.00;;;;5042308;28;20204;-68
2022/10/09 10:04:00;;;;;;;10.13;5.27;;;14.70;99.90;16.00;97715.00;;;;5037326;28;20197;-68
2022/10/09 10:06:48;;;;;;;5.87;4.70;;;14.70;99.90;15.50;97724.00;;;;5042863;28;20228;-69
2022/10/09 10:09:37;;;;;;;9.60;4.63;;;14.50;99.90;15.40;97718.00;;;;5042251;28;20225;-68
2022/10/09 10:12:27;;;;;;;11.07;4.57;;;14.40;99.90;15.70;97718.00;;;;5047097;28;21011;-68
2022/10/09 10:15:24;;;;;;;6.00;5.33;;;14.30;99.90;15.40;97720.00;;;;5047654;28;20192;-68
2022/10/09 10:18:16;;;;;;;8.87;6.00;;;14.30;99.90;15.10;97715.00;;;;5048742;28;20711;-70
2022/10/09 10:21:10;;;;;;;9.40;7.60;;;14.10;99.90;15.00;97721.00;;;;5039044;28;20227;-70
2022/10/09 10:24:02;;;;;;;6.50;5.00;;;14.00;99.90;14.90;97719.00;;;;5042267;28;20227;-70
2022/10/09 10:26:56;;;;;;;5.33;4.73;;;14.00;99.90;14.90;97718.00;;;;5040390;28;20220;-70
2022/10/09 10:29:48;;;;;;;9.13;5.03;;;13.90;99.90;14.70;97712.00;;;;5039500;28;20666;-69
2022/10/09 10:32:49;;;;;;;6.00;5.43;;;13.80;99.90;14.60;97711.00;;;;5043137;28;20205;-70
2022/10/09 10:35:42;;;;;;;8.00;5.27;;;13.70;99.90;14.80;97721.00;;;;5043897;28;20285;-70
2022/10/09 10:38:34;;;;;;;7.53;5.37;;;13.70;99.90;14.80;97717.00;;;;5039474;28;20216;-70
2022/10/09 10:41:29;;;;;;;6.43;5.30;;;13.60;99.90;14.70;97712.00;;;;5037561;28;20704;-70
2022/10/09 10:44:36;;;;;;;7.80;6.67;;;13.60;99.90;15.30;97716.00;;;;5045632;28;20534;-70
2022/10/09 10:47:30;;;;;;;7.43;6.07;;;13.70;99.90;15.70;97717.00;;;;5038543;28;20307;-69
2022/10/09 10:50:21;;;;;;;7.70;5.80;;;13.80;99.90;15.70;97719.00;;;;5039692;28;20235;-69
2022/10/09 10:53:20;;;;;;;6.63;5.63;;;13.90;99.90;15.70;97726.00;;;;5040797;28;20212;-69
2022/10/09 10:56:19;;;;;;;7.60;5.30;;;14.00;99.90;15.70;97727.00;;;;5039645;28;20262;-69
2022/10/09 10:59:29;;;;;;;6.23;5.03;;;14.00;99.90;15.50;97727.00;;;;5042502;28;20232;-69
2022/10/09 11:03:02;;;;;;;9.67;5.80;;;14.00;99.90;15.30;97726.00;;;;5036567;28;20347;-69
2022/10/09 11:05:58;;;;;;;8.00;4.97;;;13.90;99.90;15.20;97720.00;;;;5042947;28;20722;-69
2022/10/09 11:09:04;;;;;;;6.30;5.67;;;13.80;99.90;15.30;97716.00;;;;5043413;28;20231;-69
2022/10/09 11:12:02;;;;;;;6.53;5.87;;;13.80;99.90;15.30;97716.00;;;;5051911;28;20284;-69
2022/10/09 11:15:01;;;;;;;9.00;6.40;;;13.80;99.90;15.40;97721.00;;;;5046527;28;20228;-69
2022/10/09 11:18:00;;;;;;;9.20;5.93;;;13.80;99.90;15.40;97725.00;;;;5054227;28;20304;-69
2022/10/09 11:21:07;;;;;;;8.73;6.30;;;13.80;99.90;15.30;97722.00;;;;5050877;28;20694;-69
2022/10/09 11:24:30;;;;;;;6.07;5.47;;;13.80;99.90;15.30;97720.00;;;;5051404;28;20289;-69
2022/10/09 11:27:23;;;;;;;6.07;5.47;;;13.80;99.90;15.30;97716.00;;;;5051764;28;20274;-69
2022/10/09 11:30:16;;;;;;;6.30;5.70;;;13.80;99.90;15.30;97714.00;;;;5056552;28;20246;-69
2022/10/09 11:33:28;;;;;;;5.97;5.33;;;13.80;99.90;15.20;97707.00;;;;5055313;28;20281;-69
2022/10/09 11:36:22;;;;;;;7.73;5.47;;;13.70;99.90;15.10;97713.00;;;;5051976;28;20193;-69
2022/10/09 11:39:16;;;;;;;8.07;5.53;;;13.70;99.90;15.10;97701.00;;;;5057294;28;20207;-69
2022/10/09 11:42:06;;;;;;;9.00;5.73;;;13.60;99.90;15.20;97702.00;;;;5057790;28;20229;-69
2022/10/09 11:45:09;;;;;;;8.87;6.13;;;13.60;99.90;15.20;97696.00;;;;5040421;28;20282;-69
2022/10/09 11:48:08;;;;;;;8.67;6.10;;;13.60;99.90;15.20;97690.00;;;;5051948;28;20256;-69
2022/10/09 11:51:04;;;;;;;12.63;7.90;;;13.60;99.90;15.20;97690.00;;;;5052228;28;20235;-69
2022/10/09 11:53:54;;;;;;;10.17;6.70;;;13.70;99.90;15.30;97686.00;;;;5042491;28;20242;-69
2022/10/09 11:56:57;;;;;;;11.10;6.53;;;13.70;99.90;15.20;97683.00;;;;5036596;28;20696;-69
2022/10/09 11:59:46;;;;;;;7.43;6.17;;;13.70;99.90;15.20;97690.00;;;;5045147;28;20615;-69
2022/10/09 12:02:36;;;;;;;7.77;6.00;;;13.70;99.90;15.30;97684.00;;;;5041487;28;20282;-69
2022/10/09 12:05:40;;;;;;;12.47;7.67;;;13.70;99.90;15.30;97682.00;;;;5041742;28;20838;-69
2022/10/09 12:08:29;;;;;;;8.50;7.30;;;13.70;99.90;15.30;97681.00;;;;5046124;28;20286;-68
2022/10/09 12:11:21;;;;;;;17.13;6.70;;;13.70;99.90;15.40;97672.00;;;;5046775;28;20679;-69
2022/10/09 12:14:24;;;;;;;8.83;6.43;;;13.80;99.90;15.30;97675.00;;;;5042117;28;20262;-69
2022/10/09 12:17:23;;;;;;;10.40;8.27;;;13.80;99.90;15.30;97667.00;;;;5043086;28;20354;-69
2022/10/09 12:20:20;;;;;;;12.90;8.03;;;13.80;99.90;15.40;97668.00;;;;5045611;28;20193;-68
2022/10/09 12:23:12;;;;;;;8.70;7.67;;;13.80;99.90;15.40;97668.00;;;;5042169;28;20225;-68
2022/10/09 12:26:18;;;;;;;7.67;6.87;;;13.80;99.90;15.40;97663.00;;;;5045876;28;20209;-68
2022/10/09 12:29:16;;;;;;;8.43;6.90;;;13.80;99.90;15.20;97655.00;;;;5045789;28;20197;-68
2022/10/09 12:32:13;;;;;;;9.53;6.67;;;13.80;99.90;15.10;97653.00;;;;5043651;28;20713;-69
2022/10/09 12:35:12;;;;;;;9.70;6.50;;;13.70;99.90;15.20;97648.00;;;;5044568;28;20232;-69
2022/10/09 12:38:01;;;;;;;11.20;6.37;;;13.70;99.90;15.10;97665.00;;;;5045057;28;20213;-69
2022/10/09 12:40:53;;;;;;;6.97;6.27;;;13.70;99.90;15.10;97654.00;;;;5045207;28;20674;-69
2022/10/09 12:43:45;;;;;;;6.93;6.23;;;13.70;99.90;15.30;97657.00;;;;5047111;28;20702;-69
2022/10/09 12:46:37;;;;;;;9.47;6.97;;;13.70;99.90;15.30;97655.00;;;;5044847;28;20201;-69